Stations météo

Publicité
Neuhaus am Rennweg, Allemagne (10557): Température de l'air & dewpoint: 19.06.2018 06:00:00 - 25.06.2018 06:00:00 (CEST)Neuhaus am Rennweg, Allemagne (10557): Température de l'air 5cm & Température de l'air -5cm: 19.06.2018 06:00:00 - 25.06.2018 06:00:00 (CEST)Neuhaus am Rennweg, Allemagne (10557): Température de l'air -20cm & Température de l'air -100cm: 19.06.2018 06:00:00 - 25.06.2018 06:00:00 (CEST)Neuhaus am Rennweg, Allemagne (10557): Vitesse du vent & gusts: 19.06.2018 06:00:00 - 25.06.2018 06:00:00 (CEST)Neuhaus am Rennweg, Allemagne (10557): Direction du vent: 19.06.2018 06:00:00 - 25.06.2018 06:00:00 (CEST)Neuhaus am Rennweg, Allemagne (10557): visibility: 19.06.2018 06:00:00 - 25.06.2018 06:00:00 (CEST)Neuhaus am Rennweg, Allemagne (10557): Ensoleillement: 19.06.2018 06:00:00 - 25.06.2018 06:00:00 (CEST)Neuhaus am Rennweg, Allemagne (10557): Quantités de précipitations: 19.06.2018 06:00:00 - 25.06.2018 06:00:00 (CEST)
Date & Time tt [°C] td [°C] tt 5cm [°C] tt -5cm [°C] tt -20cm [°C] tt -100cm [°C] ff [km/h] ff [knt] fx [km/h] fx [knt] dd vv [km] sd [min] rr [mm]
25.06.2018 06:00:00 8,1 7,9 8,4 10,8 13,1 13,6 12 7 29 16 NNW 12 - 0,5
25.06.2018 05:00:00 8,6 8,5 8,8 11,0 13,3 13,6 14 7 27 15 NNW 1,0 - 0,7
25.06.2018 04:00:00 8,6 8,6 8,9 11,2 13,4 13,6 13 7 24 13 NNW 0,2 - 0,5
25.06.2018 03:00:00 8,6 8,6 8,8 11,3 13,6 13,6 10 5 23 12 NNW 0,4 - 0,2
25.06.2018 02:00:00 8,4 8,4 8,7 11,5 13,7 13,7 9 5 22 12 NNW 0,4 - 0,3
25.06.2018 01:00:00 8,1 8,0 8,4 11,7 13,9 13,7 11 6 21 11 NW 1,5 - 0,0
25.06.2018 00:00:00 8,1 8,0 8,5 12,0 14,1 13,7 7 4 18 10 NNW 1,1 - 0,1
24.06.2018 23:00:00 8,1 7,6 8,3 12,4 14,2 13,7 7 4 21 11 NNW 3,9 - 0,1
24.06.2018 22:00:00 8,8 6,5 9,1 12,9 14,4 13,7 11 6 22 12 NNW 43 - 0,0
24.06.2018 21:00:00 9,0 6,6 9,1 13,7 14,5 13,7 8 4 26 14 NNW 48 - 0,0
24.06.2018 20:00:00 9,7 6,2 10,1 14,5 14,5 13,7 13 7 27 15 N 53 - 0,0
24.06.2018 19:00:00 10,8 5,2 11,8 15,3 14,4 13,7 12 6 23 12 NNW 70 - 0,0
24.06.2018 18:00:00 11,4 5,5 12,8 16,0 14,3 13,7 10 5 23 13 NNW 70 - 0,0
24.06.2018 17:00:00 12,1 6,3 13,6 16,9 14,1 13,7 9 5 21 12 NNW 70 - 0,0
24.06.2018 16:00:00 12,7 6,2 15,2 17,0 13,8 13,8 7 4 20 11 NW 57 - 0,0
24.06.2018 15:00:00 12,6 5,0 14,5 17,6 13,4 13,8 11 6 29 16 NW 70 - 0,0
24.06.2018 14:00:00 13,0 5,3 17,1 18,0 13,0 13,8 15 8 33 18 WNW 58 - 0,0
24.06.2018 13:00:00 12,1 5,7 15,8 16,6 12,6 13,8 13 7 30 16 WNW 34 - 0,0
24.06.2018 12:00:00 12,1 5,6 17,9 15,6 12,3 13,8 12 7 26 14 WNW 51 - 0,0
24.06.2018 11:00:00 11,5 5,8 14,6 14,7 12,1 13,8 12 6 24 13 WNW 70 - 0,0
24.06.2018 10:00:00 10,7 5,7 14,2 12,8 11,9 13,8 14 8 27 15 NW 54 - 0,0
24.06.2018 09:00:00 9,9 6,2 12,0 11,6 11,9 13,8 10 6 29 16 NW 53 - 0,0
24.06.2018 08:00:00 8,3 5,4 9,7 10,1 11,9 13,8 11 6 24 13 NW 52 - 0,0
24.06.2018 07:00:00 7,6 5,5 8,2 9,5 12,0 13,8 13 7 22 12 NW 43 - 0,0
24.06.2018 06:00:00 7,1 5,7 7,2 9,3 12,1 13,8 8 4 20 11 WNW 30 - 0,0
24.06.2018 05:00:00 7,0 5,6 7,0 9,4 12,2 13,9 10 5 19 11 NW 35 - 0,0
24.06.2018 04:00:00 7,2 5,6 7,1 9,5 12,3 13,9 11 6 21 11 NW 35 - 0,0
24.06.2018 03:00:00 7,3 5,8 7,1 9,7 12,4 13,9 11 6 25 13 NNW 26 - 0,0
24.06.2018 02:00:00 7,8 5,9 7,6 9,9 12,5 13,9 11 6 23 12 NNW 27 - 0,0
24.06.2018 01:00:00 7,8 6,1 7,5 9,9 12,6 13,9 10 5 18 10 NW 27 - 0,0
24.06.2018 00:00:00 7,6 6,2 7,2 10,0 12,7 13,9 11 6 22 12 NW 24 - 0,0
23.06.2018 23:00:00 7,9 6,5 7,4 10,4 12,8 13,9 13 7 25 14 NW 22 - 0,0
23.06.2018 22:00:00 8,0 6,6 7,7 10,7 12,9 13,9 13 7 24 13 WNW 23 - 0,0
23.06.2018 21:00:00 8,0 6,9 7,9 11,1 12,9 13,9 14 8 23 13 WNW 15 - 0,2
23.06.2018 20:00:00 8,4 6,4 8,5 11,5 12,9 13,9 13 7 26 14 W 27 - 0,0
23.06.2018 19:00:00 8,5 6,1 9,1 11,5 12,9 13,9 14 8 30 16 WNW 29 - 0,0
23.06.2018 18:00:00 8,2 6,0 8,2 11,9 12,9 13,9 12 6 34 18 WNW 26 - 0,0
23.06.2018 17:00:00 8,0 5,8 8,2 12,0 12,9 13,9 15 8 34 18 WNW 25 - 0,0
23.06.2018 16:00:00 8,5 6,9 9,9 12,3 12,8 13,9 15 8 38 20 WNW 46 - 0,2
23.06.2018 15:00:00 9,4 7,1 11,2 12,0 12,7 13,9 17 9 37 20 WNW 44 - 0,0
23.06.2018 14:00:00 7,9 6,2 8,4 11,7 12,7 13,9 19 10 37 20 W 42 - 0,0
23.06.2018 13:00:00 7,3 6,3 8,5 11,4 12,6 13,9 14 8 28 15 W 25 - 0,0
23.06.2018 12:00:00 7,2 6,3 8,4 11,5 12,5 13,9 15 8 25 14 W 8 - 0,2
23.06.2018 11:00:00 7,0 5,4 7,7 11,8 12,4 13,9 14 7 23 12 W 8 - 0,0
23.06.2018 10:00:00 8,3 3,6 10,9 11,8 12,3 13,9 11 6 24 13 W 52 - 0,0
23.06.2018 09:00:00 6,8 3,5 8,2 10,3 12,4 13,9 10 5 26 14 W 58 - 0,0
23.06.2018 08:00:00 6,0 3,7 7,0 9,1 12,5 13,9 14 8 29 15 NW 41 - 0,0
23.06.2018 07:00:00 5,3 3,4 5,7 8,7 12,6 13,9 18 10 31 17 NW 42 - 0,0
23.06.2018 06:00:00 5,5 4,8 5,7 8,6 12,8 13,9 12 6 26 14 NW 17 - 0,0
23.06.2018 05:00:00 5,3 4,4 4,8 8,6 13,0 13,9 13 7 22 12 WNW 19 - 0,0
23.06.2018 04:00:00 5,4 4,3 5,2 8,6 13,3 13,9 14 7 34 18 NW 22 - 0,0
23.06.2018 03:00:00 5,3 4,5 4,5 8,9 13,5 13,9 15 8 29 16 NW 18 - 0,0
23.06.2018 02:00:00 6,1 5,2 5,1 9,6 13,7 13,9 15 8 27 15 NW 21 - 0,0
23.06.2018 01:00:00 6,5 5,5 6,5 9,7 13,9 13,9 11 6 32 17 NW 31 - 0,0
23.06.2018 00:00:00 6,7 5,6 6,5 10,1 14,1 13,9 16 8 37 20 WNW 33 - 0,0
22.06.2018 23:00:00 6,5 5,5 5,7 10,7 14,2 13,9 16 9 31 17 WNW 32 - 0,0
22.06.2018 22:00:00 6,9 5,3 6,8 11,2 14,4 13,9 16 9 30 16 WNW 65 - 0,0
22.06.2018 21:00:00 8,0 6,0 7,5 12,1 14,4 13,9 15 8 38 21 WNW 53 - 0,0
22.06.2018 20:00:00 8,1 6,4 8,2 12,7 14,4 13,9 16 9 33 18 WNW 49 - 0,0
22.06.2018 19:00:00 8,0 6,5 8,5 13,3 14,4 13,9 19 10 39 21 WNW 54 - 0,2
22.06.2018 18:00:00 9,0 6,0 9,2 14,3 14,3 13,9 24 13 42 23 WNW 7 - 0,0
22.06.2018 17:00:00 8,7 6,8 10,8 13,4 14,2 13,9 19 10 34 19 WNW 31 - 0,1
22.06.2018 16:00:00 9,6 6,5 12,5 13,7 14,0 13,9 19 11 42 23 NW 45 - 0,0
22.06.2018 15:00:00 7,6 6,6 10,6 12,9 14,0 13,9 24 13 46 25 WNW 24 - 0,4
22.06.2018 14:00:00 7,0 5,9 8,2 12,3 14,0 13,9 20 11 39 21 WNW 27 - 0,1
22.06.2018 13:00:00 5,6 5,0 6,6 10,8 14,2 13,9 23 12 46 25 WNW 16 - 0,3
22.06.2018 12:00:00 4,8 4,4 5,9 10,1 14,4 13,8 20 11 40 21 W 17 - 1,2
22.06.2018 11:00:00 4,7 3,9 5,2 10,4 14,5 13,8 19 10 40 21 W 6 - 1,8
22.06.2018 10:00:00 5,1 4,0 5,9 10,6 14,7 13,8 15 8 37 20 WSW 9 - 0,0
22.06.2018 09:00:00 5,7 3,1 7,3 10,9 14,9 13,8 18 10 35 19 WSW 36 - 0,0
22.06.2018 08:00:00 5,0 3,0 5,7 9,9 15,2 13,8 16 8 35 19 WSW 42 - 0,0
22.06.2018 07:00:00 4,8 2,4 5,3 9,7 15,5 13,8 14 8 31 17 W 43 - 0,0
22.06.2018 06:00:00 4,5 2,5 4,5 9,5 15,9 13,8 17 9 31 17 W 48 - 0,0
22.06.2018 05:00:00 4,1 2,0 3,0 10,0 16,3 13,8 14 8 36 19 WNW 57 - 0,0
22.06.2018 04:00:00 4,5 2,4 4,0 10,8 16,7 13,8 14 8 24 13 WNW 69 - 0,0
22.06.2018 03:00:00 5,5 2,7 4,5 11,6 17,1 13,8 12 6 27 14 WNW 70 - 0,0
22.06.2018 02:00:00 6,2 3,0 6,1 12,0 17,5 13,8 7 4 24 13 NW 70 - 0,0
22.06.2018 01:00:00 6,3 2,8 6,1 12,5 18,0 13,8 12 7 22 12 NNW 70 - 0,0
22.06.2018 00:00:00 7,0 1,4 5,7 13,3 18,4 13,8 13 7 30 16 NW 70 - 0,0
21.06.2018 23:00:00 7,6 0,6 6,1 14,4 18,8 13,8 14 8 39 21 NW 70 - 0,0
21.06.2018 22:00:00 9,2 0,6 8,1 15,9 19,1 13,7 19 11 40 22 NW 70 - 0,0
21.06.2018 21:00:00 11,1 1,2 10,2 17,7 19,3 13,7 18 10 39 21 NNW 70 - 0,0
21.06.2018 20:00:00 13,3 1,1 14,3 19,4 19,4 13,7 19 10 44 24 NNW 40 - 0,0
21.06.2018 19:00:00 15,3 0,5 17,6 20,7 19,3 13,7 25 13 49 27 WNW 35 - 0,0
21.06.2018 18:00:00 16,0 5,3 18,1 21,3 19,3 13,7 24 13 49 26 WNW 39 - 0,0
21.06.2018 17:00:00 16,6 9,4 21,0 21,4 19,3 13,7 24 13 41 22 WNW 48 - 0,0
21.06.2018 16:00:00 14,5 12,0 17,2 20,6 19,2 13,7 14 8 51 27 WNW 24 - 0,6
21.06.2018 15:00:00 15,8 10,8 17,7 22,4 19,1 13,7 23 12 48 26 WNW 70 - 0,0
21.06.2018 14:00:00 19,3 10,3 21,5 22,8 18,8 13,7 25 13 48 26 W 59 - 0,0
21.06.2018 13:00:00 19,6 9,5 21,8 22,9 18,6 13,7 27 14 48 26 W 53 - 0,0
21.06.2018 12:00:00 20,8 11,8 25,0 22,2 18,3 13,7 28 15 54 29 WSW 38 - 0,0
21.06.2018 11:00:00 20,4 12,0 23,7 22,2 18,1 13,7 26 14 51 27 WSW 32 47 0,0
21.06.2018 10:00:00 20,7 13,2 24,8 21,2 17,9 13,7 15 8 36 20 WSW 36 60 0,0
21.06.2018 09:00:00 19,5 12,8 22,2 19,3 17,9 13,7 16 9 35 19 SW 33 57 0,0
21.06.2018 08:00:00 18,6 12,4 19,9 17,7 18,1 13,7 15 8 34 19 SW 42 55 0,0
21.06.2018 07:00:00 17,8 11,8 18,2 16,2 18,3 13,7 11 6 22 12 SSW 40 60 0,0
21.06.2018 06:00:00 16,6 11,1 12,5 15,8 18,7 13,7 9 5 17 9 SSW 61 0 0,0
21.06.2018 05:00:00 17,2 11,2 13,5 16,0 19,0 13,7 11 6 20 11 WSW 61 0 0,0
21.06.2018 04:00:00 16,4 11,1 12,2 16,4 19,4 13,7 10 6 16 8 W 51 0 0,0
21.06.2018 03:00:00 15,6 10,6 11,2 17,1 19,7 13,6 11 6 16 9 W 56 0 0,0
21.06.2018 02:00:00 17,0 10,9 12,9 17,9 20,1 13,6 12 6 18 10 W 41 0 0,0
21.06.2018 01:00:00 16,9 11,3 12,3 18,8 20,5 13,6 8 5 19 11 WNW 53 0 0,0
21.06.2018 00:00:00 18,2 11,9 15,0 19,8 20,8 13,6 12 7 19 11 W 64 0 0,0
20.06.2018 23:00:00 19,0 11,5 16,0 21,0 21,1 13,6 13 7 19 11 WSW 43 0 0,0
20.06.2018 22:00:00 19,5 11,8 16,1 22,5 21,2 13,6 9 5 14 8 WSW 70 0 0,0
20.06.2018 21:00:00 21,4 11,5 19,4 24,2 21,2 13,6 9 5 23 12 W 70 60 0,0
20.06.2018 20:00:00 23,2 11,5 23,8 26,0 21,0 13,6 11 6 27 15 WSW 48 60 0,0
20.06.2018 19:00:00 23,8 11,4 25,9 27,4 20,7 13,6 13 7 26 14 WSW 26 60 0,0
20.06.2018 18:00:00 24,1 11,8 28,4 28,5 20,1 13,6 13 7 27 15 WSW 30 59 0,0
20.06.2018 17:00:00 24,3 12,3 29,4 29,0 19,5 13,6 10 5 24 13 SW 21 60 0,0
20.06.2018 16:00:00 23,6 12,1 30,0 28,9 18,9 13,6 11 6 26 14 SW 45 54 0,0
20.06.2018 15:00:00 23,0 12,4 29,7 27,9 18,2 13,6 12 6 31 17 S 41 54 0,0
20.06.2018 14:00:00 22,1 12,0 28,7 26,6 17,6 13,6 12 6 27 15 SSW 49 56 0,0
20.06.2018 13:00:00 21,2 13,4 27,2 24,5 17,1 13,6 14 8 27 15 SW 57 44 0,0
20.06.2018 12:00:00 20,6 12,3 25,8 22,1 16,8 13,6 14 7 28 15 SSW 53 29 0,0
20.06.2018 11:00:00 18,6 12,3 20,3 21,0 16,5 13,6 13 7 27 15 SW 54 28 0,0
20.06.2018 10:00:00 18,3 12,9 21,5 19,6 16,3 13,6 11 6 25 14 S 52 46 0,0
20.06.2018 09:00:00 17,5 13,0 20,6 17,7 16,2 13,6 8 5 22 12 SE 32 51 0,0
20.06.2018 08:00:00 15,7 13,2 17,2 15,6 16,3 13,6 6 3 15 8 ESE 28 4 0,0
20.06.2018 07:00:00 14,0 12,7 12,8 14,9 16,5 13,6 5 3 13 7 E 25 3 0,0
20.06.2018 06:00:00 13,7 12,5 12,4 14,9 16,6 13,6 9 5 13 7 E 20 0 0,0
20.06.2018 05:00:00 14,1 12,5 13,6 15,0 16,8 13,6 10 6 14 8 ENE 19 0 0,0
20.06.2018 04:00:00 14,2 12,4 13,6 15,0 17,0 13,6 8 4 15 8 ENE 26 0 0,0
20.06.2018 03:00:00 13,7 12,4 12,6 14,9 17,3 13,6 9 5 13 7 NE 19 0 0,0
20.06.2018 02:00:00 13,7 12,6 11,6 15,3 17,6 13,6 9 5 13 7 NE 15 0 0,0
20.06.2018 01:00:00 13,5 12,3 11,5 15,9 17,8 13,6 8 5 13 7 N 25 0 0,0
20.06.2018 00:00:00 13,9 12,2 11,3 16,7 18,0 13,6 8 5 12 7 N 34 0 0,0
19.06.2018 23:00:00 14,9 12,5 12,6 17,7 18,1 13,6 7 4 13 7 N 38 0 0,0
19.06.2018 22:00:00 16,6 12,8 15,8 18,9 18,2 13,6 6 3 13 7 N 70 0 0,0
19.06.2018 21:00:00 17,3 12,8 17,4 19,6 18,2 13,6 6 4 14 8 NNE 55 21 0,0
19.06.2018 20:00:00 17,7 12,7 17,9 20,5 18,1 13,6 8 5 17 9 N 60 0 0,0
19.06.2018 19:00:00 18,4 12,4 19,6 21,1 17,9 13,6 11 6 22 12 W 64 4 0,0
19.06.2018 18:00:00 19,0 12,0 20,5 21,8 17,7 13,5 8 4 23 12 WNW 70 3 0,0
19.06.2018 17:00:00 18,9 12,1 21,1 22,0 17,4 13,5 9 5 24 13 W 69 0 0,0
19.06.2018 16:00:00 19,1 11,6 22,1 21,7 17,1 13,5 10 6 24 13 WNW 66 3 0,0
19.06.2018 15:00:00 19,5 11,2 22,8 21,4 16,8 13,5 11 6 24 13 WNW 70 17 0,0
19.06.2018 14:00:00 18,1 11,8 20,7 20,5 16,5 13,5 6 4 19 10 WNW 70 1 0,0
19.06.2018 13:00:00 17,6 10,9 21,1 20,1 16,2 13,5 6 3 24 13 W 60 0 0,0
19.06.2018 12:00:00 16,4 11,2 18,6 19,2 16,0 13,5 8 4 29 16 WNW 49 14 0,0
19.06.2018 11:00:00 15,8 11,0 19,2 18,0 15,8 13,5 13 7 26 14 W 29 11 0,0
19.06.2018 10:00:00 15,3 11,5 18,6 17,0 15,7 13,5 15 8 28 15 W 41 19 0,0
19.06.2018 09:00:00 14,1 11,8 16,5 15,3 15,7 13,5 14 8 29 15 W 21 2 0,0
19.06.2018 08:00:00 13,3 11,8 14,3 14,3 15,9 13,5 10 6 29 15 W 21 1 0,0
19.06.2018 07:00:00 13,2 11,7 14,1 13,5 16,1 13,5 14 8 28 15 WSW 18 58 0,0
19.06.2018 06:00:00 11,8 10,9 10,8 13,1 16,3 13,5 14 8 29 16 WSW 16 6 0,0

tt = Température de l'air
td = dewpoint
tt 5cm = Température de l'air 5cm
tt -5cm = Température de l'air -5cm
tt -20cm = Température de l'air -20cm
tt -100cm = Température de l'air -100cm
ff = Vitesse du vent
fx = gusts
dd = Direction du vent
vv = visibility
sd = Ensoleillement
rr = Quantités de précipitations

stations d'obs. à proximité